sensor_id;sensor_type;location;lat;lon;timestamp;P1;durP1;ratioP1;P2;durP2;ratioP2
34072;SDS011;20346;52.702;16.886;2022-12-07T00:02:36;7.67;;;6.75;;
34072;SDS011;20346;52.702;16.886;2022-12-07T00:05:21;8.58;;;7.35;;
34072;SDS011;20346;52.702;16.886;2022-12-07T00:08:06;9.93;;;6.60;;
34072;SDS011;20346;52.702;16.886;2022-12-07T00:10:51;9.08;;;6.45;;
34072;SDS011;20346;52.702;16.886;2022-12-07T00:13:37;12.57;;;6.63;;
34072;SDS011;20346;52.702;16.886;2022-12-07T00:16:23;10.97;;;7.50;;
34072;SDS011;20346;52.702;16.886;2022-12-07T00:19:11;8.40;;;6.62;;
34072;SDS011;20346;52.702;16.886;2022-12-07T00:21:57;9.85;;;7.12;;
34072;SDS011;20346;52.702;16.886;2022-12-07T00:24:42;9.58;;;6.92;;
34072;SDS011;20346;52.702;16.886;2022-12-07T00:27:27;10.72;;;6.87;;
34072;SDS011;20346;52.702;16.886;2022-12-07T00:30:12;9.18;;;8.10;;
34072;SDS011;20346;52.702;16.886;2022-12-07T00:32:59;9.50;;;7.33;;
34072;SDS011;20346;52.702;16.886;2022-12-07T00:35:44;12.87;;;8.53;;
34072;SDS011;20346;52.702;16.886;2022-12-07T00:38:30;11.70;;;8.40;;
34072;SDS011;20346;52.702;16.886;2022-12-07T00:41:18;10.88;;;7.83;;
34072;SDS011;20346;52.702;16.886;2022-12-07T00:44:05;11.63;;;9.00;;
34072;SDS011;20346;52.702;16.886;2022-12-07T00:46:50;10.53;;;8.45;;
34072;SDS011;20346;52.702;16.886;2022-12-07T00:49:35;10.25;;;8.20;;
34072;SDS011;20346;52.702;16.886;2022-12-07T00:52:20;9.93;;;8.05;;
34072;SDS011;20346;52.702;16.886;2022-12-07T00:55:05;10.98;;;8.50;;
34072;SDS011;20346;52.702;16.886;2022-12-07T00:57:51;9.50;;;7.90;;
34072;SDS011;20346;52.702;16.886;2022-12-07T01:00:36;9.78;;;8.20;;
34072;SDS011;20346;52.702;16.886;2022-12-07T01:03:23;10.72;;;8.90;;
34072;SDS011;20346;52.702;16.886;2022-12-07T01:06:08;9.70;;;8.70;;
34072;SDS011;20346;52.702;16.886;2022-12-07T01:08:54;10.90;;;9.38;;
34072;SDS011;20346;52.702;16.886;2022-12-07T01:11:39;10.20;;;8.30;;
34072;SDS011;20346;52.702;16.886;2022-12-07T01:14:24;11.43;;;8.40;;
34072;SDS011;20346;52.702;16.886;2022-12-07T01:17:09;7.62;;;6.78;;
34072;SDS011;20346;52.702;16.886;2022-12-07T01:19:54;7.75;;;6.97;;
34072;SDS011;20346;52.702;16.886;2022-12-07T01:22:39;8.43;;;7.53;;
34072;SDS011;20346;52.702;16.886;2022-12-07T01:25:25;8.43;;;7.12;;
34072;SDS011;20346;52.702;16.886;2022-12-07T01:28:09;7.90;;;7.03;;
34072;SDS011;20346;52.702;16.886;2022-12-07T01:30:59;10.18;;;8.18;;
34072;SDS011;20346;52.702;16.886;2022-12-07T01:33:48;8.78;;;7.45;;
34072;SDS011;20346;52.702;16.886;2022-12-07T01:36:37;10.82;;;7.62;;
34072;SDS011;20346;52.702;16.886;2022-12-07T01:39:22;9.25;;;7.40;;
34072;SDS011;20346;52.702;16.886;2022-12-07T01:42:10;9.83;;;8.35;;
34072;SDS011;20346;52.702;16.886;2022-12-07T01:45:30;10.55;;;7.40;;
34072;SDS011;20346;52.702;16.886;2022-12-07T01:48:23;11.73;;;7.35;;
34072;SDS011;20346;52.702;16.886;2022-12-07T01:51:20;10.25;;;8.35;;
34072;SDS011;20346;52.702;16.886;2022-12-07T01:54:05;13.90;;;8.93;;
34072;SDS011;20346;52.702;16.886;2022-12-07T01:56:51;16.30;;;9.70;;
34072;SDS011;20346;52.702;16.886;2022-12-07T01:59:38;10.80;;;8.73;;
34072;SDS011;20346;52.702;16.886;2022-12-07T02:02:31;12.47;;;8.25;;
34072;SDS011;20346;52.702;16.886;2022-12-07T02:05:18;12.68;;;9.55;;
34072;SDS011;20346;52.702;16.886;2022-12-07T02:08:03;12.50;;;8.48;;
34072;SDS011;20346;52.702;16.886;2022-12-07T02:10:49;14.75;;;8.83;;
34072;SDS011;20346;52.702;16.886;2022-12-07T02:13:35;12.70;;;8.53;;
34072;SDS011;20346;52.702;16.886;2022-12-07T02:26:19;9.45;;;7.75;;
34072;SDS011;20346;52.702;16.886;2022-12-07T02:29:22;10.38;;;6.70;;
34072;SDS011;20346;52.702;16.886;2022-12-07T02:35:32;8.93;;;6.35;;
34072;SDS011;20346;52.702;16.886;2022-12-07T02:38:17;13.32;;;7.37;;
34072;SDS011;20346;52.702;16.886;2022-12-07T02:42:06;11.12;;;7.05;;
34072;SDS011;20346;52.702;16.886;2022-12-07T02:44:23;8.88;;;6.62;;
34072;SDS011;20346;52.702;16.886;2022-12-07T02:47:09;8.60;;;6.35;;
34072;SDS011;20346;52.702;16.886;2022-12-07T02:49:58;10.10;;;7.00;;
34072;SDS011;20346;52.702;16.886;2022-12-07T02:52:43;7.87;;;5.87;;
34072;SDS011;20346;52.702;16.886;2022-12-07T02:55:30;6.00;;;5.35;;
34072;SDS011;20346;52.702;16.886;2022-12-07T02:58:44;7.70;;;5.62;;
34072;SDS011;20346;52.702;16.886;2022-12-07T03:08:12;6.05;;;5.35;;
34072;SDS011;20346;52.702;16.886;2022-12-07T03:11:06;7.92;;;5.80;;
34072;SDS011;20346;52.702;16.886;2022-12-07T03:14:02;7.70;;;5.50;;
34072;SDS011;20346;52.702;16.886;2022-12-07T03:16:58;6.15;;;4.92;;
34072;SDS011;20346;52.702;16.886;2022-12-07T03:20:02;5.10;;;4.60;;
34072;SDS011;20346;52.702;16.886;2022-12-07T03:22:52;7.25;;;5.03;;
34072;SDS011;20346;52.702;16.886;2022-12-07T03:25:39;6.17;;;5.17;;
34072;SDS011;20346;52.702;16.886;2022-12-07T03:28:31;5.60;;;4.92;;
34072;SDS011;20346;52.702;16.886;2022-12-07T03:31:25;5.67;;;4.47;;
34072;SDS011;20346;52.702;16.886;2022-12-07T03:34:21;6.08;;;4.72;;
34072;SDS011;20346;52.702;16.886;2022-12-07T03:37:20;7.58;;;4.42;;
34072;SDS011;20346;52.702;16.886;2022-12-07T03:40:13;4.60;;;4.20;;
34072;SDS011;20346;52.702;16.886;2022-12-07T03:49:25;4.55;;;3.92;;
34072;SDS011;20346;52.702;16.886;2022-12-07T03:55:15;5.95;;;4.25;;
34072;SDS011;20346;52.702;16.886;2022-12-07T03:58:12;4.87;;;4.40;;
34072;SDS011;20346;52.702;16.886;2022-12-07T04:01:03;4.87;;;4.37;;
34072;SDS011;20346;52.702;16.886;2022-12-07T04:03:48;4.67;;;4.20;;
34072;SDS011;20346;52.702;16.886;2022-12-07T04:06:33;5.50;;;4.45;;
34072;SDS011;20346;52.702;16.886;2022-12-07T04:09:18;4.58;;;4.17;;
34072;SDS011;20346;52.702;16.886;2022-12-07T04:12:03;5.30;;;4.37;;
34072;SDS011;20346;52.702;16.886;2022-12-07T04:14:49;5.37;;;4.87;;
34072;SDS011;20346;52.702;16.886;2022-12-07T04:17:34;6.28;;;4.10;;
34072;SDS011;20346;52.702;16.886;2022-12-07T04:20:18;4.70;;;4.30;;
34072;SDS011;20346;52.702;16.886;2022-12-07T04:23:03;5.47;;;4.10;;
34072;SDS011;20346;52.702;16.886;2022-12-07T04:25:48;5.50;;;4.33;;
34072;SDS011;20346;52.702;16.886;2022-12-07T04:28:33;6.40;;;4.28;;
34072;SDS011;20346;52.702;16.886;2022-12-07T04:31:18;4.92;;;4.40;;
34072;SDS011;20346;52.702;16.886;2022-12-07T04:34:03;4.50;;;4.10;;
34072;SDS011;20346;52.702;16.886;2022-12-07T04:36:49;4.58;;;4.00;;
34072;SDS011;20346;52.702;16.886;2022-12-07T04:39:34;4.95;;;4.45;;
34072;SDS011;20346;52.702;16.886;2022-12-07T04:42:19;7.37;;;4.67;;
34072;SDS011;20346;52.702;16.886;2022-12-07T04:45:04;5.20;;;4.70;;
34072;SDS011;20346;52.702;16.886;2022-12-07T04:50:35;4.87;;;4.40;;
34072;SDS011;20346;52.702;16.886;2022-12-07T04:53:21;5.08;;;4.58;;
34072;SDS011;20346;52.702;16.886;2022-12-07T04:56:06;5.35;;;4.85;;
34072;SDS011;20346;52.702;16.886;2022-12-07T04:58:52;5.97;;;5.37;;
34072;SDS011;20346;52.702;16.886;2022-12-07T05:04:22;6.33;;;5.13;;
34072;SDS011;20346;52.702;16.886;2022-12-07T05:07:07;5.97;;;5.35;;
34072;SDS011;20346;52.702;16.886;2022-12-07T05:09:52;7.50;;;6.30;;
34072;SDS011;20346;52.702;16.886;2022-12-07T05:12:37;5.97;;;5.35;;
34072;SDS011;20346;52.702;16.886;2022-12-07T05:15:23;7.35;;;6.65;;
34072;SDS011;20346;52.702;16.886;2022-12-07T05:18:07;7.37;;;6.62;;
34072;SDS011;20346;52.702;16.886;2022-12-07T05:20:52;7.25;;;6.62;;
34072;SDS011;20346;52.702;16.886;2022-12-07T05:23:37;8.20;;;6.42;;
34072;SDS011;20346;52.702;16.886;2022-12-07T05:26:22;8.78;;;7.28;;
34072;SDS011;20346;52.702;16.886;2022-12-07T05:29:09;7.58;;;6.87;;
34072;SDS011;20346;52.702;16.886;2022-12-07T05:31:57;7.30;;;6.65;;
34072;SDS011;20346;52.702;16.886;2022-12-07T05:34:41;9.05;;;7.33;;
34072;SDS011;20346;52.702;16.886;2022-12-07T05:37:27;8.73;;;7.83;;
34072;SDS011;20346;52.702;16.886;2022-12-07T05:40:12;9.33;;;7.97;;
34072;SDS011;20346;52.702;16.886;2022-12-07T05:42:58;7.28;;;6.58;;
34072;SDS011;20346;52.702;16.886;2022-12-07T05:45:43;8.13;;;7.22;;
34072;SDS011;20346;52.702;16.886;2022-12-07T05:48:28;8.95;;;8.03;;
34072;SDS011;20346;52.702;16.886;2022-12-07T05:51:13;8.30;;;7.50;;
34072;SDS011;20346;52.702;16.886;2022-12-07T05:53:58;8.35;;;7.45;;
34072;SDS011;20346;52.702;16.886;2022-12-07T05:56:43;8.63;;;7.10;;
34072;SDS011;20346;52.702;16.886;2022-12-07T05:59:27;9.65;;;7.25;;
34072;SDS011;20346;52.702;16.886;2022-12-07T06:02:13;9.73;;;7.50;;
34072;SDS011;20346;52.702;16.886;2022-12-07T06:05:00;8.83;;;7.65;;
34072;SDS011;20346;52.702;16.886;2022-12-07T06:07:45;9.30;;;7.85;;
34072;SDS011;20346;52.702;16.886;2022-12-07T06:10:30;8.75;;;7.85;;
34072;SDS011;20346;52.702;16.886;2022-12-07T06:13:15;8.30;;;7.50;;
34072;SDS011;20346;52.702;16.886;2022-12-07T06:16:00;8.93;;;8.03;;
34072;SDS011;20346;52.702;16.886;2022-12-07T06:18:45;9.25;;;7.87;;
34072;SDS011;20346;52.702;16.886;2022-12-07T06:21:29;11.20;;;8.48;;
34072;SDS011;20346;52.702;16.886;2022-12-07T06:24:15;9.40;;;8.50;;
34072;SDS011;20346;52.702;16.886;2022-12-07T06:27:00;10.45;;;8.58;;
34072;SDS011;20346;52.702;16.886;2022-12-07T06:29:45;12.18;;;8.33;;
34072;SDS011;20346;52.702;16.886;2022-12-07T06:32:30;8.73;;;7.83;;
34072;SDS011;20346;52.702;16.886;2022-12-07T06:35:15;8.40;;;7.60;;
34072;SDS011;20346;52.702;16.886;2022-12-07T06:38:00;9.73;;;8.38;;
34072;SDS011;20346;52.702;16.886;2022-12-07T06:40:46;9.03;;;8.05;;
34072;SDS011;20346;52.702;16.886;2022-12-07T06:43:30;9.00;;;7.90;;
34072;SDS011;20346;52.702;16.886;2022-12-07T06:46:16;9.38;;;8.35;;
34072;SDS011;20346;52.702;16.886;2022-12-07T06:49:01;11.80;;;9.23;;
34072;SDS011;20346;52.702;16.886;2022-12-07T06:51:46;12.28;;;8.75;;
34072;SDS011;20346;52.702;16.886;2022-12-07T06:54:32;11.30;;;8.98;;
34072;SDS011;20346;52.702;16.886;2022-12-07T06:57:16;9.83;;;8.50;;
34072;SDS011;20346;52.702;16.886;2022-12-07T07:00:02;10.85;;;9.73;;
34072;SDS011;20346;52.702;16.886;2022-12-07T07:02:48;10.95;;;9.60;;
34072;SDS011;20346;52.702;16.886;2022-12-07T07:05:33;10.25;;;9.13;;
34072;SDS011;20346;52.702;16.886;2022-12-07T07:08:18;9.08;;;8.18;;
34072;SDS011;20346;52.702;16.886;2022-12-07T07:11:03;9.88;;;8.48;;
34072;SDS011;20346;52.702;16.886;2022-12-07T07:13:49;9.35;;;8.35;;
34072;SDS011;20346;52.702;16.886;2022-12-07T07:16:34;9.25;;;8.35;;
34072;SDS011;20346;52.702;16.886;2022-12-07T07:19:19;9.45;;;8.48;;
34072;SDS011;20346;52.702;16.886;2022-12-07T07:22:04;8.15;;;7.33;;
34072;SDS011;20346;52.702;16.886;2022-12-07T07:24:49;7.90;;;7.20;;
34072;SDS011;20346;52.702;16.886;2022-12-07T07:27:34;8.93;;;7.97;;
34072;SDS011;20346;52.702;16.886;2022-12-07T07:30:19;8.68;;;7.80;;
34072;SDS011;20346;52.702;16.886;2022-12-07T07:33:04;8.73;;;7.78;;
34072;SDS011;20346;52.702;16.886;2022-12-07T07:35:49;8.58;;;7.03;;
34072;SDS011;20346;52.702;16.886;2022-12-07T07:38:34;8.08;;;7.28;;
34072;SDS011;20346;52.702;16.886;2022-12-07T07:41:19;8.00;;;7.20;;
34072;SDS011;20346;52.702;16.886;2022-12-07T07:44:04;10.63;;;7.75;;
34072;SDS011;20346;52.702;16.886;2022-12-07T07:46:49;7.87;;;7.17;;
34072;SDS011;20346;52.702;16.886;2022-12-07T07:49:34;9.75;;;7.87;;
34072;SDS011;20346;52.702;16.886;2022-12-07T07:52:19;8.60;;;6.97;;
34072;SDS011;20346;52.702;16.886;2022-12-07T07:55:04;7.95;;;7.22;;
34072;SDS011;20346;52.702;16.886;2022-12-07T07:57:52;7.92;;;7.15;;
34072;SDS011;20346;52.702;16.886;2022-12-07T08:00:38;8.35;;;7.55;;
34072;SDS011;20346;52.702;16.886;2022-12-07T08:03:22;7.95;;;7.15;;
34072;SDS011;20346;52.702;16.886;2022-12-07T08:06:07;7.35;;;6.60;;
34072;SDS011;20346;52.702;16.886;2022-12-07T08:08:52;8.53;;;6.85;;
34072;SDS011;20346;52.702;16.886;2022-12-07T08:11:37;7.95;;;7.15;;
34072;SDS011;20346;52.702;16.886;2022-12-07T08:14:22;8.13;;;6.83;;
34072;SDS011;20346;52.702;16.886;2022-12-07T08:17:07;7.03;;;6.05;;
34072;SDS011;20346;52.702;16.886;2022-12-07T08:19:52;7.35;;;6.60;;
34072;SDS011;20346;52.702;16.886;2022-12-07T08:22:37;7.28;;;6.65;;
34072;SDS011;20346;52.702;16.886;2022-12-07T08:25:22;8.35;;;6.53;;
34072;SDS011;20346;52.702;16.886;2022-12-07T08:28:07;7.30;;;6.70;;
34072;SDS011;20346;52.702;16.886;2022-12-07T08:30:52;8.30;;;6.90;;
34072;SDS011;20346;52.702;16.886;2022-12-07T08:33:46;7.70;;;7.00;;
34072;SDS011;20346;52.702;16.886;2022-12-07T08:36:32;7.75;;;6.42;;
34072;SDS011;20346;52.702;16.886;2022-12-07T08:39:17;7.75;;;6.95;;
34072;SDS011;20346;52.702;16.886;2022-12-07T08:42:02;8.58;;;6.95;;
34072;SDS011;20346;52.702;16.886;2022-12-07T08:44:47;8.50;;;7.58;;
34072;SDS011;20346;52.702;16.886;2022-12-07T08:47:32;8.63;;;7.50;;
34072;SDS011;20346;52.702;16.886;2022-12-07T08:50:18;9.05;;;8.10;;
34072;SDS011;20346;52.702;16.886;2022-12-07T08:53:04;8.80;;;7.90;;
34072;SDS011;20346;52.702;16.886;2022-12-07T08:55:50;8.93;;;7.50;;
34072;SDS011;20346;52.702;16.886;2022-12-07T08:58:35;11.53;;;7.97;;
34072;SDS011;20346;52.702;16.886;2022-12-07T09:01:22;7.12;;;6.40;;
34072;SDS011;20346;52.702;16.886;2022-12-07T09:04:07;8.80;;;7.90;;
34072;SDS011;20346;52.702;16.886;2022-12-07T09:06:53;8.38;;;7.50;;
34072;SDS011;20346;52.702;16.886;2022-12-07T09:12:23;7.60;;;6.70;;
34072;SDS011;20346;52.702;16.886;2022-12-07T09:15:08;8.08;;;6.85;;
34072;SDS011;20346;52.702;16.886;2022-12-07T09:17:53;8.15;;;7.03;;
34072;SDS011;20346;52.702;16.886;2022-12-07T09:20:39;9.13;;;7.37;;
34072;SDS011;20346;52.702;16.886;2022-12-07T09:23:23;9.55;;;7.87;;
34072;SDS011;20346;52.702;16.886;2022-12-07T09:26:09;8.68;;;7.45;;
34072;SDS011;20346;52.702;16.886;2022-12-07T09:28:54;9.95;;;8.20;;
34072;SDS011;20346;52.702;16.886;2022-12-07T09:31:39;10.98;;;8.68;;
34072;SDS011;20346;52.702;16.886;2022-12-07T09:34:24;10.37;;;9.07;;
34072;SDS011;20346;52.702;16.886;2022-12-07T09:37:10;10.23;;;8.47;;
34072;SDS011;20346;52.702;16.886;2022-12-07T09:39:55;11.05;;;9.13;;
34072;SDS011;20346;52.702;16.886;2022-12-07T09:42:44;13.25;;;8.78;;
34072;SDS011;20346;52.702;16.886;2022-12-07T09:45:33;10.68;;;9.20;;
34072;SDS011;20346;52.702;16.886;2022-12-07T09:48:21;11.30;;;9.33;;
34072;SDS011;20346;52.702;16.886;2022-12-07T09:51:17;12.45;;;9.50;;
34072;SDS011;20346;52.702;16.886;2022-12-07T09:54:07;12.53;;;9.88;;
34072;SDS011;20346;52.702;16.886;2022-12-07T09:56:59;12.13;;;9.58;;
34072;SDS011;20346;52.702;16.886;2022-12-07T09:59:44;12.75;;;10.40;;
34072;SDS011;20346;52.702;16.886;2022-12-07T10:05:20;14.13;;;11.03;;
34072;SDS011;20346;52.702;16.886;2022-12-07T10:08:15;14.65;;;10.95;;
34072;SDS011;20346;52.702;16.886;2022-12-07T10:11:01;13.83;;;11.20;;
34072;SDS011;20346;52.702;16.886;2022-12-07T10:13:48;14.70;;;11.20;;
34072;SDS011;20346;52.702;16.886;2022-12-07T10:16:40;11.15;;;9.83;;
34072;SDS011;20346;52.702;16.886;2022-12-07T10:19:27;14.58;;;11.57;;
34072;SDS011;20346;52.702;16.886;2022-12-07T10:22:16;13.30;;;11.68;;
34072;SDS011;20346;52.702;16.886;2022-12-07T10:25:07;16.35;;;13.05;;
34072;SDS011;20346;52.702;16.886;2022-12-07T10:36:38;14.60;;;11.53;;
34072;SDS011;20346;52.702;16.886;2022-12-07T10:39:23;16.67;;;11.53;;
34072;SDS011;20346;52.702;16.886;2022-12-07T10:42:15;14.85;;;11.80;;
34072;SDS011;20346;52.702;16.886;2022-12-07T10:57:53;13.85;;;9.98;;
34072;SDS011;20346;52.702;16.886;2022-12-07T11:00:57;16.73;;;10.70;;
34072;SDS011;20346;52.702;16.886;2022-12-07T11:07:11;11.88;;;9.95;;
34072;SDS011;20346;52.702;16.886;2022-12-07T11:25:23;9.63;;;8.58;;
34072;SDS011;20346;52.702;16.886;2022-12-07T11:28:38;9.88;;;8.58;;
34072;SDS011;20346;52.702;16.886;2022-12-07T11:31:57;10.05;;;8.68;;
34072;SDS011;20346;52.702;16.886;2022-12-07T11:38:10;12.03;;;8.70;;
34072;SDS011;20346;52.702;16.886;2022-12-07T11:41:03;9.73;;;8.28;;
34072;SDS011;20346;52.702;16.886;2022-12-07T11:47:04;7.90;;;7.10;;
34072;SDS011;20346;52.702;16.886;2022-12-07T11:50:18;10.58;;;8.05;;
34072;SDS011;20346;52.702;16.886;2022-12-07T11:53:26;9.88;;;7.83;;
34072;SDS011;20346;52.702;16.886;2022-12-07T11:56:24;9.68;;;8.33;;
34072;SDS011;20346;52.702;16.886;2022-12-07T11:59:12;8.13;;;7.33;;
34072;SDS011;20346;52.702;16.886;2022-12-07T12:02:17;10.08;;;7.97;;
34072;SDS011;20346;52.702;16.886;2022-12-07T12:05:16;8.25;;;7.25;;
34072;SDS011;20346;52.702;16.886;2022-12-07T12:11:04;8.75;;;7.85;;
34072;SDS011;20346;52.702;16.886;2022-12-07T12:23:22;9.50;;;8.35;;
34072;SDS011;20346;52.702;16.886;2022-12-07T12:26:23;10.18;;;8.58;;
34072;SDS011;20346;52.702;16.886;2022-12-07T12:29:29;11.60;;;9.20;;
34072;SDS011;20346;52.702;16.886;2022-12-07T12:32:41;10.95;;;8.70;;
34072;SDS011;20346;52.702;16.886;2022-12-07T12:38:29;10.10;;;8.98;;
34072;SDS011;20346;52.702;16.886;2022-12-07T12:47:40;9.80;;;8.75;;
34072;SDS011;20346;52.702;16.886;2022-12-07T12:50:37;9.00;;;7.92;;
34072;SDS011;20346;52.702;16.886;2022-12-07T12:53:23;8.25;;;7.45;;
34072;SDS011;20346;52.702;16.886;2022-12-07T12:59:28;9.28;;;7.33;;
34072;SDS011;20346;52.702;16.886;2022-12-07T13:05:20;8.48;;;7.35;;
34072;SDS011;20346;52.702;16.886;2022-12-07T13:08:14;8.55;;;7.65;;
34072;SDS011;20346;52.702;16.886;2022-12-07T13:14:41;7.90;;;7.10;;
34072;SDS011;20346;52.702;16.886;2022-12-07T13:23:36;7.10;;;5.85;;
34072;SDS011;20346;52.702;16.886;2022-12-07T13:26:39;6.03;;;5.42;;
34072;SDS011;20346;52.702;16.886;2022-12-07T13:29:21;6.67;;;6.08;;
34072;SDS011;20346;52.702;16.886;2022-12-07T13:32:17;6.83;;;6.17;;
34072;SDS011;20346;52.702;16.886;2022-12-07T13:34:57;6.85;;;5.80;;
34072;SDS011;20346;52.702;16.886;2022-12-07T13:37:42;5.17;;;4.42;;
34072;SDS011;20346;52.702;16.886;2022-12-07T13:40:28;6.30;;;5.17;;
34072;SDS011;20346;52.702;16.886;2022-12-07T13:43:14;4.80;;;4.40;;
34072;SDS011;20346;52.702;16.886;2022-12-07T13:46:01;5.12;;;4.60;;
34072;SDS011;20346;52.702;16.886;2022-12-07T13:48:47;4.17;;;3.87;;
34072;SDS011;20346;52.702;16.886;2022-12-07T13:51:34;5.47;;;4.70;;
34072;SDS011;20346;52.702;16.886;2022-12-07T13:54:21;4.12;;;3.80;;
34072;SDS011;20346;52.702;16.886;2022-12-07T13:57:06;4.30;;;3.90;;
34072;SDS011;20346;52.702;16.886;2022-12-07T13:59:51;3.75;;;3.45;;
34072;SDS011;20346;52.702;16.886;2022-12-07T14:02:53;4.22;;;3.83;;
34072;SDS011;20346;52.702;16.886;2022-12-07T14:05:46;4.10;;;3.70;;
34072;SDS011;20346;52.702;16.886;2022-12-07T14:08:34;4.85;;;4.40;;
34072;SDS011;20346;52.702;16.886;2022-12-07T14:11:19;4.42;;;4.03;;
34072;SDS011;20346;52.702;16.886;2022-12-07T14:14:05;4.60;;;4.20;;
34072;SDS011;20346;52.702;16.886;2022-12-07T14:17:01;7.95;;;3.67;;
34072;SDS011;20346;52.702;16.886;2022-12-07T14:19:59;4.20;;;3.80;;
34072;SDS011;20346;52.702;16.886;2022-12-07T14:22:54;6.00;;;4.40;;
34072;SDS011;20346;52.702;16.886;2022-12-07T14:25:45;5.30;;;4.10;;
34072;SDS011;20346;52.702;16.886;2022-12-07T14:28:34;4.95;;;3.92;;
34072;SDS011;20346;52.702;16.886;2022-12-07T14:31:21;4.37;;;3.98;;
34072;SDS011;20346;52.702;16.886;2022-12-07T14:34:11;4.30;;;3.72;;
34072;SDS011;20346;52.702;16.886;2022-12-07T14:36:58;4.58;;;3.92;;
34072;SDS011;20346;52.702;16.886;2022-12-07T14:39:43;4.83;;;4.42;;
34072;SDS011;20346;52.702;16.886;2022-12-07T14:42:28;4.67;;;4.17;;
34072;SDS011;20346;52.702;16.886;2022-12-07T14:45:16;4.87;;;4.37;;
34072;SDS011;20346;52.702;16.886;2022-12-07T14:48:06;4.33;;;3.92;;
34072;SDS011;20346;52.702;16.886;2022-12-07T14:50:56;5.72;;;5.22;;
34072;SDS011;20346;52.702;16.886;2022-12-07T14:53:42;5.03;;;4.62;;
34072;SDS011;20346;52.702;16.886;2022-12-07T14:56:33;5.92;;;5.33;;
34072;SDS011;20346;52.702;16.886;2022-12-07T14:59:18;5.70;;;5.10;;
34072;SDS011;20346;52.702;16.886;2022-12-07T15:02:03;5.67;;;5.17;;
34072;SDS011;20346;52.702;16.886;2022-12-07T15:04:50;5.85;;;5.22;;
34072;SDS011;20346;52.702;16.886;2022-12-07T15:07:35;5.62;;;5.12;;
34072;SDS011;20346;52.702;16.886;2022-12-07T15:10:25;5.87;;;5.23;;
34072;SDS011;20346;52.702;16.886;2022-12-07T15:16:19;5.15;;;4.65;;
34072;SDS011;20346;52.702;16.886;2022-12-07T15:19:05;5.40;;;4.58;;
34072;SDS011;20346;52.702;16.886;2022-12-07T15:21:52;3.95;;;3.55;;
34072;SDS011;20346;52.702;16.886;2022-12-07T15:24:37;4.35;;;3.85;;
34072;SDS011;20346;52.702;16.886;2022-12-07T15:27:22;4.17;;;3.75;;
34072;SDS011;20346;52.702;16.886;2022-12-07T15:30:07;3.70;;;3.33;;
34072;SDS011;20346;52.702;16.886;2022-12-07T15:32:53;3.72;;;3.42;;
34072;SDS011;20346;52.702;16.886;2022-12-07T15:35:39;6.12;;;3.80;;
34072;SDS011;20346;52.702;16.886;2022-12-07T15:38:26;3.30;;;3.00;;
34072;SDS011;20346;52.702;16.886;2022-12-07T15:41:13;5.10;;;3.15;;
34072;SDS011;20346;52.702;16.886;2022-12-07T15:43:58;2.90;;;2.62;;
34072;SDS011;20346;52.702;16.886;2022-12-07T15:47:01;2.85;;;2.47;;
34072;SDS011;20346;52.702;16.886;2022-12-07T15:49:48;3.25;;;2.60;;
34072;SDS011;20346;52.702;16.886;2022-12-07T15:52:33;2.90;;;2.60;;
34072;SDS011;20346;52.702;16.886;2022-12-07T15:55:18;4.97;;;3.10;;
34072;SDS011;20346;52.702;16.886;2022-12-07T15:58:03;4.45;;;2.67;;
34072;SDS011;20346;52.702;16.886;2022-12-07T16:00:48;3.62;;;3.10;;
34072;SDS011;20346;52.702;16.886;2022-12-07T16:03:33;5.28;;;3.62;;
34072;SDS011;20346;52.702;16.886;2022-12-07T16:06:18;4.37;;;3.40;;
34072;SDS011;20346;52.702;16.886;2022-12-07T16:09:03;4.95;;;3.30;;
34072;SDS011;20346;52.702;16.886;2022-12-07T16:11:49;4.92;;;3.83;;
34072;SDS011;20346;52.702;16.886;2022-12-07T16:14:34;4.62;;;3.25;;
34072;SDS011;20346;52.702;16.886;2022-12-07T16:17:19;4.33;;;3.92;;
34072;SDS011;20346;52.702;16.886;2022-12-07T16:20:04;4.53;;;3.83;;
34072;SDS011;20346;52.702;16.886;2022-12-07T16:22:52;5.28;;;4.05;;
34072;SDS011;20346;52.702;16.886;2022-12-07T16:25:37;4.12;;;3.55;;
34072;SDS011;20346;52.702;16.886;2022-12-07T16:28:22;5.40;;;4.05;;
34072;SDS011;20346;52.702;16.886;2022-12-07T16:31:08;5.25;;;4.47;;
34072;SDS011;20346;52.702;16.886;2022-12-07T16:33:59;6.70;;;4.10;;
34072;SDS011;20346;52.702;16.886;2022-12-07T16:36:44;7.00;;;4.72;;
34072;SDS011;20346;52.702;16.886;2022-12-07T16:39:29;6.50;;;3.90;;
34072;SDS011;20346;52.702;16.886;2022-12-07T16:42:14;9.90;;;5.85;;
34072;SDS011;20346;52.702;16.886;2022-12-07T16:45:00;5.75;;;4.37;;
34072;SDS011;20346;52.702;16.886;2022-12-07T16:47:45;8.38;;;4.85;;
34072;SDS011;20346;52.702;16.886;2022-12-07T16:50:30;7.90;;;4.35;;
34072;SDS011;20346;52.702;16.886;2022-12-07T16:53:15;8.35;;;4.62;;
34072;SDS011;20346;52.702;16.886;2022-12-07T16:56:00;6.20;;;4.45;;
34072;SDS011;20346;52.702;16.886;2022-12-07T16:58:46;6.37;;;4.15;;
34072;SDS011;20346;52.702;16.886;2022-12-07T17:01:33;7.08;;;4.58;;
34072;SDS011;20346;52.702;16.886;2022-12-07T17:04:18;6.42;;;4.35;;
34072;SDS011;20346;52.702;16.886;2022-12-07T17:07:04;7.00;;;4.70;;
34072;SDS011;20346;52.702;16.886;2022-12-07T17:09:49;6.78;;;4.20;;
34072;SDS011;20346;52.702;16.886;2022-12-07T17:12:36;5.05;;;3.95;;
34072;SDS011;20346;52.702;16.886;2022-12-07T17:15:21;6.45;;;3.95;;
34072;SDS011;20346;52.702;16.886;2022-12-07T17:18:07;9.30;;;3.65;;
34072;SDS011;20346;52.702;16.886;2022-12-07T17:20:52;4.53;;;3.27;;
34072;SDS011;20346;52.702;16.886;2022-12-07T17:23:37;5.20;;;3.42;;
34072;SDS011;20346;52.702;16.886;2022-12-07T17:26:23;5.42;;;3.60;;
34072;SDS011;20346;52.702;16.886;2022-12-07T17:29:11;5.03;;;3.45;;
34072;SDS011;20346;52.702;16.886;2022-12-07T17:31:58;6.25;;;3.70;;
34072;SDS011;20346;52.702;16.886;2022-12-07T17:34:43;6.20;;;3.40;;
34072;SDS011;20346;52.702;16.886;2022-12-07T17:37:28;4.37;;;3.62;;
34072;SDS011;20346;52.702;16.886;2022-12-07T17:40:15;6.83;;;4.08;;
34072;SDS011;20346;52.702;16.886;2022-12-07T17:43:00;9.48;;;4.72;;
34072;SDS011;20346;52.702;16.886;2022-12-07T17:45:45;6.15;;;4.30;;
34072;SDS011;20346;52.702;16.886;2022-12-07T17:48:30;4.55;;;3.90;;
34072;SDS011;20346;52.702;16.886;2022-12-07T17:51:15;5.77;;;4.30;;
34072;SDS011;20346;52.702;16.886;2022-12-07T17:54:19;9.18;;;4.37;;
34072;SDS011;20346;52.702;16.886;2022-12-07T17:57:04;7.75;;;4.40;;
34072;SDS011;20346;52.702;16.886;2022-12-07T17:59:49;6.42;;;4.85;;
34072;SDS011;20346;52.702;16.886;2022-12-07T18:02:35;9.75;;;4.95;;
34072;SDS011;20346;52.702;16.886;2022-12-07T18:05:20;10.10;;;4.62;;
34072;SDS011;20346;52.702;16.886;2022-12-07T18:08:05;7.05;;;4.40;;
34072;SDS011;20346;52.702;16.886;2022-12-07T18:10:56;6.87;;;4.22;;
34072;SDS011;20346;52.702;16.886;2022-12-07T18:13:44;5.20;;;3.83;;
34072;SDS011;20346;52.702;16.886;2022-12-07T18:16:29;7.17;;;4.40;;
34072;SDS011;20346;52.702;16.886;2022-12-07T18:19:18;8.05;;;3.98;;
34072;SDS011;20346;52.702;16.886;2022-12-07T18:22:03;6.53;;;4.15;;
34072;SDS011;20346;52.702;16.886;2022-12-07T18:24:48;6.62;;;4.37;;
34072;SDS011;20346;52.702;16.886;2022-12-07T18:27:34;7.47;;;4.63;;
34072;SDS011;20346;52.702;16.886;2022-12-07T18:30:19;7.53;;;4.40;;
34072;SDS011;20346;52.702;16.886;2022-12-07T18:33:03;7.05;;;4.55;;
34072;SDS011;20346;52.702;16.886;2022-12-07T18:35:49;8.95;;;5.03;;
34072;SDS011;20346;52.702;16.886;2022-12-07T18:38:34;7.10;;;5.10;;
34072;SDS011;20346;52.702;16.886;2022-12-07T18:41:20;7.00;;;4.78;;